createdAt,value
2023-01-03T00:01:35.808Z,8.40
2023-01-03T00:04:04.242Z,8.40
2023-01-03T00:06:35.768Z,8.50
2023-01-03T00:09:07.071Z,8.50
2023-01-03T00:11:49.528Z,8.40
2023-01-03T00:14:19.574Z,8.40
2023-01-03T00:16:50.936Z,8.40
2023-01-03T00:19:19.084Z,8.30
2023-01-03T00:21:47.075Z,8.30
2023-01-03T00:24:16.955Z,8.30
2023-01-03T00:26:45.356Z,8.30
2023-01-03T00:29:14.011Z,8.30
2023-01-03T00:31:42.390Z,8.30
2023-01-03T00:34:10.740Z,8.30
2023-01-03T00:36:39.395Z,8.20
2023-01-03T00:39:08.547Z,8.30
2023-01-03T00:41:37.871Z,8.30
2023-01-03T00:44:06.131Z,8.30
2023-01-03T00:46:34.781Z,8.20
2023-01-03T00:49:03.185Z,8.20
2023-01-03T00:51:33.351Z,8.30
2023-01-03T00:54:02.676Z,8.20
2023-01-03T00:56:33.150Z,8.20
2023-01-03T00:59:03.091Z,8.20
2023-01-03T01:01:39.443Z,8.20
2023-01-03T01:04:14.031Z,8.20
2023-01-03T01:06:44.030Z,8.20
2023-01-03T01:09:16.004Z,8.30
2023-01-03T01:11:44.831Z,8.30
2023-01-03T01:14:23.638Z,8.30
2023-01-03T01:16:54.800Z,8.30
2023-01-03T01:19:25.465Z,8.30
2023-01-03T01:21:55.040Z,8.30
2023-01-03T01:24:24.487Z,8.30
2023-01-03T01:26:52.466Z,8.30
2023-01-03T01:29:22.317Z,8.30
2023-01-03T01:31:50.872Z,8.30
2023-01-03T01:34:19.873Z,8.30
2023-01-03T01:36:49.226Z,8.20
2023-01-03T01:39:19.481Z,8.20
2023-01-03T01:42:07.075Z,8.20
2023-01-03T01:44:49.947Z,8.10
2023-01-03T01:47:25.512Z,8.10
2023-01-03T01:49:57.769Z,8.00
2023-01-03T01:52:27.826Z,8.00
2023-01-03T01:54:57.467Z,8.00
2023-01-03T01:57:26.814Z,7.90
2023-01-03T01:59:56.213Z,7.80
2023-01-03T02:02:25.371Z,7.80
2023-01-03T02:04:56.611Z,7.70
2023-01-03T02:07:25.281Z,7.70
2023-01-03T02:09:57.036Z,7.60
2023-01-03T02:12:52.660Z,7.50
2023-01-03T02:15:39.927Z,7.50
2023-01-03T02:18:20.630Z,7.40
2023-01-03T02:21:21.547Z,7.30
2023-01-03T02:24:15.085Z,7.30
2023-01-03T02:27:02.252Z,7.20
2023-01-03T02:29:57.499Z,7.20
2023-01-03T02:32:36.571Z,7.10
2023-01-03T02:35:09.694Z,7.10
2023-01-03T02:37:43.815Z,7.20
2023-01-03T02:40:21.368Z,7.40
2023-01-03T02:43:02.286Z,7.40
2023-01-03T02:45:46.959Z,7.30
2023-01-03T02:48:20.885Z,7.40
2023-01-03T02:50:50.462Z,7.60
2023-01-03T02:53:25.820Z,7.50
2023-01-03T02:55:56.050Z,7.60
2023-01-03T02:58:27.913Z,7.60
2023-01-03T03:00:59.237Z,8.00
2023-01-03T03:03:33.959Z,7.70
2023-01-03T03:06:10.478Z,7.70
2023-01-03T03:08:38.979Z,7.70
2023-01-03T03:11:25.544Z,7.70
2023-01-03T03:13:59.368Z,7.70
2023-01-03T03:16:46.531Z,7.80
2023-01-03T03:19:52.335Z,8.10
2023-01-03T03:22:45.552Z,7.80
2023-01-03T03:25:18.552Z,7.80
2023-01-03T03:28:06.567Z,7.80
2023-01-03T03:30:39.294Z,8.20
2023-01-03T03:33:08.279Z,7.80
2023-01-03T03:35:44.957Z,8.70
2023-01-03T03:38:15.478Z,7.90
2023-01-03T03:41:16.332Z,7.90
2023-01-03T03:44:07.189Z,7.90
2023-01-03T03:46:41.723Z,7.90
2023-01-03T03:49:34.593Z,7.90
2023-01-03T03:52:09.730Z,7.90
2023-01-03T03:54:40.663Z,7.90
2023-01-03T03:57:13.805Z,7.80
2023-01-03T03:59:44.925Z,7.80
2023-01-03T04:02:16.913Z,7.80
2023-01-03T04:04:49.052Z,7.80
2023-01-03T04:07:18.548Z,7.80
2023-01-03T04:09:46.677Z,7.90
2023-01-03T04:12:14.800Z,7.80
2023-01-03T04:14:43.014Z,7.90
2023-01-03T04:17:11.176Z,7.90
2023-01-03T04:19:39.220Z,7.90
2023-01-03T04:22:07.458Z,7.90
2023-01-03T04:24:36.949Z,7.90
2023-01-03T04:27:06.185Z,7.80
2023-01-03T04:29:39.158Z,7.90
2023-01-03T04:32:08.324Z,7.80
2023-01-03T04:34:36.847Z,7.80
2023-01-03T04:37:04.982Z,7.80
2023-01-03T04:39:33.110Z,7.70
2023-01-03T04:42:22.584Z,7.70
2023-01-03T04:44:49.828Z,8.10
2023-01-03T04:47:17.941Z,7.70
2023-01-03T04:49:46.797Z,8.60
2023-01-03T04:52:15.059Z,8.20
2023-01-03T04:54:43.536Z,7.60
2023-01-03T04:57:12.970Z,7.60
2023-01-03T04:59:41.085Z,7.60
2023-01-03T05:02:09.279Z,8.50
2023-01-03T05:04:37.621Z,8.00
2023-01-03T05:07:05.826Z,7.70
2023-01-03T05:09:33.942Z,7.60
2023-01-03T05:12:02.096Z,7.60
2023-01-03T05:14:31.619Z,8.10
2023-01-03T05:16:59.845Z,7.60
2023-01-03T05:19:28.051Z,7.60
2023-01-03T05:22:13.648Z,7.60
2023-01-03T05:24:59.000Z,7.60
2023-01-03T05:27:27.734Z,7.80
2023-01-03T05:29:57.431Z,7.90
2023-01-03T05:32:25.570Z,7.70
2023-01-03T05:34:53.746Z,7.70
2023-01-03T05:37:23.129Z,7.70
2023-01-03T05:39:51.269Z,7.60
2023-01-03T05:42:19.355Z,7.60
2023-01-03T05:44:47.450Z,7.60
2023-01-03T05:47:17.720Z,7.60
2023-01-03T05:49:45.856Z,7.60
2023-01-03T05:52:14.149Z,7.60
2023-01-03T05:54:42.334Z,7.50
2023-01-03T05:57:10.747Z,7.50
2023-01-03T05:59:38.817Z,7.80
2023-01-03T06:02:07.003Z,7.90
2023-01-03T06:04:36.665Z,7.50
2023-01-03T06:07:04.845Z,7.50
2023-01-03T06:09:34.374Z,7.50
2023-01-03T06:12:02.579Z,7.50
2023-01-03T06:14:30.709Z,7.50
2023-01-03T06:17:16.022Z,7.50
2023-01-03T06:19:45.450Z,7.50
2023-01-03T06:22:16.631Z,7.50
2023-01-03T06:24:45.307Z,7.50
2023-01-03T06:27:13.400Z,7.60
2023-01-03T06:29:42.851Z,7.60
2023-01-03T06:32:13.129Z,7.50
2023-01-03T06:34:41.224Z,7.60
2023-01-03T06:37:10.888Z,7.60
2023-01-03T06:39:39.006Z,7.90
2023-01-03T06:42:21.314Z,7.60
2023-01-03T06:45:09.551Z,7.60
2023-01-03T06:47:55.991Z,7.60
2023-01-03T06:50:42.060Z,7.60
2023-01-03T06:53:15.684Z,7.50
2023-01-03T06:55:45.143Z,7.60
2023-01-03T06:58:14.168Z,7.60
2023-01-03T07:00:45.124Z,7.70
2023-01-03T07:03:13.344Z,7.70
2023-01-03T07:05:41.502Z,7.80
2023-01-03T07:08:10.994Z,7.80
2023-01-03T07:10:39.199Z,7.80
2023-01-03T07:13:24.618Z,7.80
2023-01-03T07:15:55.008Z,7.90
2023-01-03T07:18:23.349Z,8.00
2023-01-03T07:20:51.487Z,7.90
2023-01-03T07:23:20.978Z,7.90
2023-01-03T07:25:49.161Z,8.00
2023-01-03T07:28:19.599Z,8.00
2023-01-03T07:30:47.771Z,8.80
2023-01-03T07:33:17.077Z,8.00
2023-01-03T07:35:45.566Z,8.00
2023-01-03T07:38:14.716Z,8.60
2023-01-03T07:40:44.237Z,8.00
2023-01-03T07:43:30.431Z,8.00
2023-01-03T07:45:58.596Z,8.00
2023-01-03T07:48:26.889Z,8.20
2023-01-03T07:50:58.038Z,8.00
2023-01-03T07:53:26.547Z,8.00
2023-01-03T07:55:56.138Z,8.00
2023-01-03T07:58:24.187Z,8.00
2023-01-03T08:00:52.259Z,8.40
2023-01-03T08:03:20.344Z,8.00
2023-01-03T08:05:48.444Z,8.00
2023-01-03T08:08:16.559Z,8.20
2023-01-03T08:11:16.389Z,8.70
2023-01-03T08:13:46.670Z,8.40
2023-01-03T08:16:17.349Z,8.60
2023-01-03T08:18:46.521Z,8.20
2023-01-03T08:21:16.901Z,8.00
2023-01-03T08:23:45.213Z,8.20
2023-01-03T08:26:14.680Z,8.00
2023-01-03T08:28:44.114Z,8.00
2023-01-03T08:31:16.663Z,8.10
2023-01-03T08:33:48.451Z,8.10
2023-01-03T08:36:17.631Z,8.20
2023-01-03T08:38:48.798Z,8.20
2023-01-03T08:41:23.947Z,8.20
2023-01-03T08:43:52.278Z,8.20
2023-01-03T08:46:22.203Z,8.20
2023-01-03T08:48:50.638Z,8.30
2023-01-03T08:51:19.012Z,9.00
2023-01-03T08:53:49.238Z,8.30
2023-01-03T08:56:19.658Z,8.40
2023-01-03T08:58:47.773Z,8.50
2023-01-03T09:01:16.101Z,8.30
2023-01-03T09:03:45.761Z,8.40
2023-01-03T09:06:13.942Z,8.40
2023-01-03T09:08:44.145Z,8.40
2023-01-03T09:11:12.537Z,8.10
2023-01-03T09:13:41.007Z,8.50
2023-01-03T09:16:10.819Z,8.40
2023-01-03T09:18:40.308Z,8.40
2023-01-03T09:21:10.348Z,8.40
2023-01-03T09:23:39.205Z,8.50
2023-01-03T09:26:10.380Z,8.50
2023-01-03T09:28:38.437Z,8.50
2023-01-03T09:31:07.287Z,8.50
2023-01-03T09:33:35.395Z,8.70
2023-01-03T09:36:03.460Z,8.70
2023-01-03T09:38:32.892Z,8.60
2023-01-03T09:41:06.184Z,8.70
2023-01-03T09:43:40.846Z,8.80
2023-01-03T09:46:17.844Z,8.70
2023-01-03T09:48:46.529Z,8.70
2023-01-03T09:51:37.961Z,8.80
2023-01-03T09:54:30.819Z,8.80
2023-01-03T09:57:16.213Z,8.90
2023-01-03T10:00:04.840Z,8.80
2023-01-03T10:03:17.231Z,8.90
2023-01-03T10:06:00.915Z,8.90
2023-01-03T10:08:39.269Z,8.80
2023-01-03T10:11:12.799Z,8.80
2023-01-03T10:13:55.136Z,8.80
2023-01-03T10:16:38.038Z,8.90
2023-01-03T10:19:27.955Z,9.10
2023-01-03T10:22:06.435Z,9.00
2023-01-03T10:24:44.023Z,9.00
2023-01-03T10:27:17.638Z,9.00
2023-01-03T10:29:49.512Z,9.00
2023-01-03T10:32:33.281Z,9.00
2023-01-03T10:35:22.236Z,8.90
2023-01-03T10:37:52.809Z,8.90
2023-01-03T10:40:21.108Z,8.90
2023-01-03T10:42:55.332Z,8.90
2023-01-03T10:45:23.853Z,8.90
2023-01-03T10:48:00.784Z,8.90
2023-01-03T10:50:30.126Z,8.90
2023-01-03T10:53:00.554Z,8.90
2023-01-03T10:55:29.430Z,9.00
2023-01-03T10:58:15.264Z,9.10
2023-01-03T11:00:44.573Z,9.10
2023-01-03T11:03:16.999Z,9.20
2023-01-03T11:05:47.540Z,9.30
2023-01-03T11:08:19.729Z,9.40
2023-01-03T11:10:59.760Z,9.50
2023-01-03T11:13:35.708Z,9.40
2023-01-03T11:16:13.564Z,9.40
2023-01-03T11:18:43.700Z,9.50
2023-01-03T11:21:18.195Z,9.60
2023-01-03T11:24:08.886Z,9.60
2023-01-03T11:26:45.304Z,9.60
2023-01-03T11:29:55.685Z,9.60
2023-01-03T11:32:42.647Z,9.50
2023-01-03T11:35:28.082Z,9.60
2023-01-03T11:38:04.807Z,9.50
2023-01-03T11:40:53.194Z,9.60
2023-01-03T11:43:36.323Z,9.60
2023-01-03T11:46:21.067Z,9.60
2023-01-03T11:49:21.851Z,9.60
2023-01-03T11:52:00.285Z,9.50
2023-01-03T11:54:54.140Z,9.40
2023-01-03T11:57:33.018Z,9.30
2023-01-03T12:00:09.840Z,9.40
2023-01-03T12:03:02.228Z,9.10
2023-01-03T12:05:44.326Z,9.20
2023-01-03T12:08:49.729Z,9.10
2023-01-03T12:11:47.684Z,9.00
2023-01-03T12:14:22.362Z,9.00
2023-01-03T12:16:55.435Z,8.90
2023-01-03T12:19:34.801Z,9.00
2023-01-03T12:22:13.514Z,9.00
2023-01-03T12:24:46.683Z,9.10
2023-01-03T12:27:19.681Z,9.00
2023-01-03T12:29:54.689Z,9.00
2023-01-03T12:32:29.788Z,9.40
2023-01-03T12:35:23.946Z,9.20
2023-01-03T12:37:52.604Z,9.30
2023-01-03T12:40:27.783Z,9.40
2023-01-03T12:43:05.646Z,9.50
2023-01-03T12:45:44.344Z,9.50
2023-01-03T12:48:31.229Z,9.50
2023-01-03T12:51:00.955Z,9.50
2023-01-03T12:53:36.112Z,9.40
2023-01-03T12:56:24.490Z,9.30
2023-01-03T12:59:06.204Z,9.20
2023-01-03T13:01:40.680Z,9.30
2023-01-03T13:04:22.672Z,9.10
2023-01-03T13:06:57.569Z,9.00
2023-01-03T13:09:32.291Z,8.90
2023-01-03T13:12:06.549Z,8.90
2023-01-03T13:14:53.568Z,8.80
2023-01-03T13:17:23.804Z,8.80
2023-01-03T13:19:57.778Z,8.90
2023-01-03T13:22:49.744Z,8.90
2023-01-03T13:25:39.977Z,8.80
2023-01-03T13:28:29.676Z,8.80
2023-01-03T13:31:35.825Z,8.80
2023-01-03T13:34:33.005Z,8.80
2023-01-03T13:37:17.865Z,8.80
2023-01-03T13:40:19.820Z,8.80
2023-01-03T13:42:48.107Z,8.80
2023-01-03T13:45:56.337Z,8.80
2023-01-03T13:48:38.221Z,8.80
2023-01-03T13:51:39.201Z,8.80
2023-01-03T13:54:55.788Z,9.00
2023-01-03T13:57:37.456Z,8.80
2023-01-03T14:00:15.341Z,8.80
2023-01-03T14:03:20.611Z,8.70
2023-01-03T14:06:21.576Z,8.60
2023-01-03T14:09:23.957Z,8.50
2023-01-03T14:12:10.106Z,8.50
2023-01-03T14:14:41.920Z,9.30
2023-01-03T14:17:17.572Z,9.80
2023-01-03T14:19:51.626Z,8.30
2023-01-03T14:22:31.273Z,8.40
2023-01-03T14:25:00.584Z,8.40
2023-01-03T14:27:36.245Z,8.40
2023-01-03T14:30:20.052Z,8.40
2023-01-03T14:32:48.651Z,8.40
2023-01-03T14:35:35.563Z,8.40
2023-01-03T14:38:07.031Z,8.50
2023-01-03T14:40:35.743Z,8.50
2023-01-03T14:43:05.642Z,8.60
2023-01-03T14:45:35.123Z,8.70
2023-01-03T14:48:03.295Z,8.50
2023-01-03T14:50:33.364Z,8.50
2023-01-03T14:53:03.504Z,8.50
2023-01-03T14:55:32.845Z,8.80
2023-01-03T14:58:23.503Z,8.50
2023-01-03T15:00:54.816Z,8.50
2023-01-03T15:03:23.378Z,8.50
2023-01-03T15:05:58.635Z,8.40
2023-01-03T15:08:29.794Z,8.40
2023-01-03T15:11:01.216Z,8.40
2023-01-03T15:13:33.469Z,8.30
2023-01-03T15:16:05.644Z,8.30
2023-01-03T15:18:36.367Z,8.30
2023-01-03T15:21:06.168Z,8.30
2023-01-03T15:23:40.575Z,8.30
2023-01-03T15:26:19.766Z,8.30
2023-01-03T15:28:53.787Z,8.70
2023-01-03T15:31:36.954Z,8.20
2023-01-03T15:34:14.552Z,8.20
2023-01-03T15:36:43.189Z,8.20
2023-01-03T15:39:18.797Z,8.30
2023-01-03T15:42:42.252Z,8.00
2023-01-03T15:44:53.711Z,7.90
2023-01-03T15:47:26.440Z,7.70
2023-01-03T15:49:59.263Z,7.60
2023-01-03T15:52:27.982Z,7.70
2023-01-03T15:54:56.047Z,7.50
2023-01-03T15:57:29.768Z,7.50
2023-01-03T16:00:00.892Z,7.50
2023-01-03T16:02:32.316Z,7.40
2023-01-03T16:05:00.504Z,7.40
2023-01-03T16:07:28.663Z,7.40
2023-01-03T16:09:56.913Z,7.40
2023-01-03T16:12:33.547Z,7.40
2023-01-03T16:15:02.534Z,7.40
2023-01-03T16:17:33.003Z,8.30
2023-01-03T16:20:01.457Z,7.50
2023-01-03T16:22:35.348Z,7.40
2023-01-03T16:25:06.710Z,7.80
2023-01-03T16:27:34.967Z,7.40
2023-01-03T16:30:03.039Z,7.30
2023-01-03T16:32:33.683Z,7.50
2023-01-03T16:35:03.199Z,7.10
2023-01-03T16:37:31.633Z,7.00
2023-01-03T16:39:59.711Z,7.40
2023-01-03T16:42:28.545Z,6.70
2023-01-03T16:44:57.812Z,7.10
2023-01-03T16:47:30.670Z,6.60
2023-01-03T16:50:02.617Z,6.50
2023-01-03T16:52:38.667Z,6.50
2023-01-03T16:55:14.693Z,6.40
2023-01-03T16:57:43.825Z,6.30
2023-01-03T17:00:20.192Z,6.30
2023-01-03T17:02:48.807Z,6.30
2023-01-03T17:05:19.244Z,6.20
2023-01-03T17:07:49.913Z,6.30
2023-01-03T17:10:32.087Z,6.20
2023-01-03T17:13:07.027Z,6.10
2023-01-03T17:15:40.515Z,6.30
2023-01-03T17:18:13.219Z,6.00
2023-01-03T17:20:42.696Z,6.00
2023-01-03T17:23:11.897Z,5.90
2023-01-03T17:25:41.504Z,6.50
2023-01-03T17:28:11.519Z,5.90
2023-01-03T17:30:39.685Z,6.30
2023-01-03T17:33:07.775Z,5.80
2023-01-03T17:35:38.454Z,6.00
2023-01-03T17:38:27.023Z,5.80
2023-01-03T17:40:57.253Z,5.70
2023-01-03T17:43:26.448Z,5.90
2023-01-03T17:46:20.677Z,5.70
2023-01-03T17:49:08.694Z,6.10
2023-01-03T17:51:36.845Z,5.90
2023-01-03T17:54:06.508Z,6.00
2023-01-03T17:56:34.652Z,6.20
2023-01-03T17:59:04.790Z,6.50
2023-01-03T18:01:34.159Z,6.40
2023-01-03T18:04:02.501Z,6.90
2023-01-03T18:06:30.706Z,6.50
2023-01-03T18:08:59.477Z,6.60
2023-01-03T18:11:28.969Z,6.60
2023-01-03T18:13:57.046Z,6.50
2023-01-03T18:16:25.493Z,6.50
2023-01-03T18:18:53.605Z,7.50
2023-01-03T18:21:23.726Z,6.50
2023-01-03T18:23:58.349Z,6.40
2023-01-03T18:26:32.804Z,6.60
2023-01-03T18:29:01.085Z,6.50
2023-01-03T18:31:30.610Z,6.60
2023-01-03T18:34:04.033Z,6.80
2023-01-03T18:36:37.020Z,7.00
2023-01-03T18:39:08.032Z,6.70
2023-01-03T18:41:37.640Z,6.80
2023-01-03T18:44:06.217Z,6.80
2023-01-03T18:46:34.363Z,6.80
2023-01-03T18:49:02.586Z,6.90
2023-01-03T18:51:30.853Z,6.90
2023-01-03T18:54:00.360Z,6.80
2023-01-03T18:56:33.704Z,6.80
2023-01-03T18:59:07.626Z,6.70
2023-01-03T19:01:36.171Z,6.80
2023-01-03T19:04:04.693Z,6.80
2023-01-03T19:06:33.866Z,6.80
2023-01-03T19:09:05.404Z,6.80
2023-01-03T19:11:37.080Z,6.80
2023-01-03T19:14:08.890Z,6.80
2023-01-03T19:16:38.759Z,6.70
2023-01-03T19:19:07.987Z,6.60
2023-01-03T19:21:37.780Z,6.60
2023-01-03T19:24:08.801Z,6.70
2023-01-03T19:26:41.999Z,6.70
2023-01-03T19:29:20.095Z,6.70
2023-01-03T19:31:49.864Z,6.80
2023-01-03T19:34:19.637Z,6.80
2023-01-03T19:36:48.091Z,6.80
2023-01-03T19:39:20.950Z,6.80
2023-01-03T19:42:13.059Z,7.00
2023-01-03T19:44:43.161Z,6.70
2023-01-03T19:47:14.111Z,6.60
2023-01-03T19:49:42.708Z,6.60
2023-01-03T19:52:11.116Z,7.00
2023-01-03T19:54:39.220Z,6.50
2023-01-03T19:57:14.223Z,6.90
2023-01-03T19:59:44.699Z,6.70
2023-01-03T20:02:26.458Z,6.70
2023-01-03T20:04:54.753Z,6.70
2023-01-03T20:07:23.132Z,6.70
2023-01-03T20:09:51.553Z,6.60
2023-01-03T20:12:24.921Z,6.60
2023-01-03T20:15:01.321Z,6.50
2023-01-03T20:17:32.768Z,6.50
2023-01-03T20:20:01.995Z,7.60
2023-01-03T20:23:03.133Z,6.40
2023-01-03T20:25:26.054Z,6.40
2023-01-03T20:27:54.731Z,6.30
2023-01-03T20:30:28.449Z,6.30
2023-01-03T20:32:56.674Z,6.30
2023-01-03T20:36:08.374Z,6.20
2023-01-03T20:38:16.877Z,6.20
2023-01-03T20:40:45.075Z,6.40
2023-01-03T20:43:17.211Z,6.10
2023-01-03T20:45:47.364Z,6.10
2023-01-03T20:48:22.739Z,6.10
2023-01-03T20:50:51.901Z,6.10
2023-01-03T20:53:21.781Z,6.50
2023-01-03T20:55:50.736Z,6.10
2023-01-03T20:58:20.754Z,6.20
2023-01-03T21:00:50.230Z,6.70
2023-01-03T21:03:18.772Z,6.50
2023-01-03T21:05:46.997Z,6.30
2023-01-03T21:08:34.423Z,6.40
2023-01-03T21:11:03.614Z,6.40
2023-01-03T21:13:31.796Z,6.40
2023-01-03T21:16:01.401Z,6.40
2023-01-03T21:18:29.731Z,6.90
2023-01-03T21:20:57.862Z,6.90
2023-01-03T21:23:26.047Z,6.40
2023-01-03T21:25:56.675Z,6.50
2023-01-03T21:28:24.857Z,6.60
2023-01-03T21:30:52.975Z,6.90
2023-01-03T21:33:22.538Z,6.90
2023-01-03T21:35:51.991Z,6.70
2023-01-03T21:38:20.180Z,7.10
2023-01-03T21:40:50.030Z,6.80
2023-01-03T21:43:18.389Z,6.80
2023-01-03T21:45:48.799Z,7.00
2023-01-03T21:48:18.502Z,6.80
2023-01-03T21:50:50.965Z,6.80
2023-01-03T21:53:21.009Z,6.80
2023-01-03T21:55:50.686Z,6.80
2023-01-03T21:58:21.107Z,6.80
2023-01-03T22:00:49.267Z,7.30
2023-01-03T22:03:36.168Z,6.80
2023-01-03T22:06:11.318Z,6.80
2023-01-03T22:08:39.538Z,6.80
2023-01-03T22:11:08.426Z,6.70
2023-01-03T22:13:36.973Z,6.70
2023-01-03T22:16:05.944Z,6.70
2023-01-03T22:18:34.739Z,6.70
2023-01-03T22:21:03.704Z,6.60
2023-01-03T22:23:33.675Z,6.60
2023-01-03T22:26:03.059Z,6.50
2023-01-03T22:28:35.788Z,6.50
2023-01-03T22:31:10.702Z,6.40
2023-01-03T22:33:39.083Z,6.30
2023-01-03T22:36:09.326Z,6.90
2023-01-03T22:38:39.655Z,6.30
2023-01-03T22:41:11.392Z,6.30
2023-01-03T22:43:39.833Z,6.50
2023-01-03T22:46:09.001Z,6.20
2023-01-03T22:48:37.491Z,6.20
2023-01-03T22:51:07.770Z,6.10
2023-01-03T22:53:36.886Z,6.10
2023-01-03T22:56:07.830Z,6.30
2023-01-03T22:58:36.979Z,6.20
2023-01-03T23:01:09.083Z,6.70
2023-01-03T23:03:37.386Z,6.20
2023-01-03T23:06:06.879Z,6.20
2023-01-03T23:08:35.467Z,6.20
2023-01-03T23:11:33.981Z,6.20
2023-01-03T23:14:04.471Z,6.70
2023-01-03T23:16:34.024Z,6.30
2023-01-03T23:19:04.378Z,6.60
2023-01-03T23:21:32.657Z,5.90
2023-01-03T23:24:00.806Z,6.80
2023-01-03T23:26:30.889Z,6.80
2023-01-03T23:29:01.273Z,6.70
2023-01-03T23:31:29.991Z,6.80
2023-01-03T23:33:59.108Z,6.30
2023-01-03T23:36:27.351Z,6.30
2023-01-03T23:38:56.212Z,6.60
2023-01-03T23:41:24.852Z,6.30
2023-01-03T23:43:55.648Z,6.30
2023-01-03T23:46:25.306Z,6.30
2023-01-03T23:48:56.288Z,6.50
2023-01-03T23:51:25.157Z,6.80
2023-01-03T23:53:54.012Z,6.30
2023-01-03T23:56:24.205Z,6.30
2023-01-03T23:58:53.990Z,6.30
